sensor_id;sensor_type;location;lat;lon;timestamp;pressure;altitude;pressure_sealevel;temperature;humidity
61761;BME280;47664;51.660;-0.100;2023-07-02T00:02:06;100296.83;;;17.18;40.84
61761;BME280;47664;51.660;-0.100;2023-07-02T00:04:33;100295.40;;;17.16;41.27
61761;BME280;47664;51.660;-0.100;2023-07-02T00:07:00;100293.73;;;17.26;41.27
61761;BME280;47664;51.660;-0.100;2023-07-02T00:09:27;100294.08;;;17.43;41.11
61761;BME280;47664;51.660;-0.100;2023-07-02T00:11:55;100297.36;;;16.96;41.39
61761;BME280;47664;51.660;-0.100;2023-07-02T00:14:23;100298.57;;;17.55;41.00
61761;BME280;47664;51.660;-0.100;2023-07-02T00:16:50;100298.09;;;16.89;41.51
61761;BME280;47664;51.660;-0.100;2023-07-02T00:19:17;100298.11;;;17.39;41.55
61761;BME280;47664;51.660;-0.100;2023-07-02T00:21:45;100298.00;;;17.07;41.40
61761;BME280;47664;51.660;-0.100;2023-07-02T00:24:12;100297.41;;;17.31;41.46
61761;BME280;47664;51.660;-0.100;2023-07-02T00:26:39;100297.24;;;16.79;41.82
61761;BME280;47664;51.660;-0.100;2023-07-02T00:29:06;100300.13;;;16.84;42.31
61761;BME280;47664;51.660;-0.100;2023-07-02T00:31:34;100303.49;;;17.02;42.44
61761;BME280;47664;51.660;-0.100;2023-07-02T00:34:02;100301.32;;;16.85;42.71
61761;BME280;47664;51.660;-0.100;2023-07-02T00:36:31;100300.22;;;16.71;42.58
61761;BME280;47664;51.660;-0.100;2023-07-02T00:38:59;100302.45;;;16.74;42.84
61761;BME280;47664;51.660;-0.100;2023-07-02T00:41:26;100302.58;;;16.29;43.47
61761;BME280;47664;51.660;-0.100;2023-07-02T00:43:54;100301.34;;;16.73;43.01
61761;BME280;47664;51.660;-0.100;2023-07-02T00:46:22;100299.67;;;17.05;42.46
61761;BME280;47664;51.660;-0.100;2023-07-02T00:48:51;100300.26;;;16.95;42.80
61761;BME280;47664;51.660;-0.100;2023-07-02T00:51:20;100299.64;;;16.85;42.87
61761;BME280;47664;51.660;-0.100;2023-07-02T00:53:49;100299.16;;;16.96;42.87
61761;BME280;47664;51.660;-0.100;2023-07-02T00:56:17;100300.07;;;16.98;42.77
61761;BME280;47664;51.660;-0.100;2023-07-02T00:58:46;100301.89;;;16.88;42.73
61761;BME280;47664;51.660;-0.100;2023-07-02T01:01:15;100302.59;;;17.13;42.59
61761;BME280;47664;51.660;-0.100;2023-07-02T01:03:59;100301.40;;;17.15;42.60
61761;BME280;47664;51.660;-0.100;2023-07-02T01:06:28;100306.35;;;17.09;42.82
61761;BME280;47664;51.660;-0.100;2023-07-02T01:08:56;100308.31;;;16.87;43.08
61761;BME280;47664;51.660;-0.100;2023-07-02T01:11:27;100314.33;;;17.24;43.02
61761;BME280;47664;51.660;-0.100;2023-07-02T01:14:01;100316.85;;;16.88;43.40
61761;BME280;47664;51.660;-0.100;2023-07-02T01:16:30;100319.18;;;16.68;43.17
61761;BME280;47664;51.660;-0.100;2023-07-02T01:18:58;100322.50;;;16.42;43.19
61761;BME280;47664;51.660;-0.100;2023-07-02T01:21:26;100327.86;;;16.86;43.33
61761;BME280;47664;51.660;-0.100;2023-07-02T01:23:53;100327.12;;;16.94;43.48
61761;BME280;47664;51.660;-0.100;2023-07-02T01:26:21;100329.25;;;16.81;43.56
61761;BME280;47664;51.660;-0.100;2023-07-02T01:28:53;100327.44;;;16.62;43.86
61761;BME280;47664;51.660;-0.100;2023-07-02T01:31:20;100328.28;;;16.47;44.05
61761;BME280;47664;51.660;-0.100;2023-07-02T01:33:47;100332.29;;;16.44;44.12
61761;BME280;47664;51.660;-0.100;2023-07-02T01:36:15;100332.98;;;16.44;44.19
61761;BME280;47664;51.660;-0.100;2023-07-02T01:38:42;100331.16;;;16.32;44.52
61761;BME280;47664;51.660;-0.100;2023-07-02T01:41:09;100334.57;;;16.45;44.26
61761;BME280;47664;51.660;-0.100;2023-07-02T01:43:36;100333.00;;;16.40;44.37
61761;BME280;47664;51.660;-0.100;2023-07-02T01:46:03;100330.82;;;16.51;44.30
61761;BME280;47664;51.660;-0.100;2023-07-02T01:48:30;100333.19;;;16.50;44.06
61761;BME280;47664;51.660;-0.100;2023-07-02T01:50:58;100333.96;;;16.76;44.12
61761;BME280;47664;51.660;-0.100;2023-07-02T01:53:25;100333.93;;;16.50;44.06
61761;BME280;47664;51.660;-0.100;2023-07-02T01:55:52;100336.93;;;16.33;44.21
61761;BME280;47664;51.660;-0.100;2023-07-02T01:58:19;100335.71;;;16.07;44.52
61761;BME280;47664;51.660;-0.100;2023-07-02T02:00:46;100335.97;;;16.34;44.70
61761;BME280;47664;51.660;-0.100;2023-07-02T02:03:14;100337.93;;;15.98;44.84
61761;BME280;47664;51.660;-0.100;2023-07-02T02:05:41;100337.31;;;15.87;44.93
61761;BME280;47664;51.660;-0.100;2023-07-02T02:08:08;100335.30;;;16.56;44.82
61761;BME280;47664;51.660;-0.100;2023-07-02T02:10:35;100337.78;;;15.97;44.93
61761;BME280;47664;51.660;-0.100;2023-07-02T02:13:03;100342.94;;;15.95;44.84
61761;BME280;47664;51.660;-0.100;2023-07-02T02:15:30;100341.44;;;16.35;45.05
61761;BME280;47664;51.660;-0.100;2023-07-02T02:17:57;100339.42;;;15.65;45.29
61761;BME280;47664;51.660;-0.100;2023-07-02T02:20:24;100338.95;;;15.89;45.37
61761;BME280;47664;51.660;-0.100;2023-07-02T02:22:52;100343.70;;;16.02;45.54
61761;BME280;47664;51.660;-0.100;2023-07-02T02:25:19;100343.27;;;15.98;45.61
61761;BME280;47664;51.660;-0.100;2023-07-02T02:27:46;100346.01;;;16.13;45.35
61761;BME280;47664;51.660;-0.100;2023-07-02T02:30:13;100347.15;;;15.65;45.39
61761;BME280;47664;51.660;-0.100;2023-07-02T02:32:40;100345.71;;;15.83;45.73
61761;BME280;47664;51.660;-0.100;2023-07-02T02:35:08;100344.05;;;15.69;45.74
61761;BME280;47664;51.660;-0.100;2023-07-02T02:37:37;100345.13;;;16.05;45.49
61761;BME280;47664;51.660;-0.100;2023-07-02T02:40:06;100347.19;;;15.65;46.06
61761;BME280;47664;51.660;-0.100;2023-07-02T02:42:34;100348.16;;;15.33;46.28
61761;BME280;47664;51.660;-0.100;2023-07-02T02:45:06;100350.29;;;15.47;46.51
61761;BME280;47664;51.660;-0.100;2023-07-02T02:47:34;100350.71;;;15.63;46.49
61761;BME280;47664;51.660;-0.100;2023-07-02T02:50:01;100350.53;;;15.32;46.76
61761;BME280;47664;51.660;-0.100;2023-07-02T02:52:28;100354.46;;;15.41;46.66
61761;BME280;47664;51.660;-0.100;2023-07-02T02:54:56;100354.01;;;15.45;46.63
61761;BME280;47664;51.660;-0.100;2023-07-02T02:57:23;100350.87;;;15.53;46.52
61761;BME280;47664;51.660;-0.100;2023-07-02T02:59:56;100350.66;;;15.23;46.93
61761;BME280;47664;51.660;-0.100;2023-07-02T03:02:23;100346.98;;;15.39;46.75
61761;BME280;47664;51.660;-0.100;2023-07-02T03:04:50;100347.40;;;15.32;46.91
61761;BME280;47664;51.660;-0.100;2023-07-02T03:07:17;100343.82;;;15.19;47.03
61761;BME280;47664;51.660;-0.100;2023-07-02T03:09:44;100347.11;;;15.48;46.65
61761;BME280;47664;51.660;-0.100;2023-07-02T03:12:11;100349.56;;;15.06;47.09
61761;BME280;47664;51.660;-0.100;2023-07-02T03:14:39;100353.48;;;15.18;47.41
61761;BME280;47664;51.660;-0.100;2023-07-02T03:17:06;100356.68;;;15.02;47.65
61761;BME280;47664;51.660;-0.100;2023-07-02T03:19:33;100359.19;;;14.94;47.45
61761;BME280;47664;51.660;-0.100;2023-07-02T03:22:01;100356.51;;;14.98;47.44
61761;BME280;47664;51.660;-0.100;2023-07-02T03:24:28;100356.86;;;15.00;47.56
61761;BME280;47664;51.660;-0.100;2023-07-02T03:26:55;100360.01;;;15.27;48.01
61761;BME280;47664;51.660;-0.100;2023-07-02T03:29:22;100354.11;;;15.17;47.97
61761;BME280;47664;51.660;-0.100;2023-07-02T03:31:50;100354.15;;;15.25;47.30
61761;BME280;47664;51.660;-0.100;2023-07-02T03:34:17;100360.67;;;15.40;47.42
61761;BME280;47664;51.660;-0.100;2023-07-02T03:36:44;100362.88;;;15.71;47.30
61761;BME280;47664;51.660;-0.100;2023-07-02T03:39:11;100368.54;;;15.09;48.04
61761;BME280;47664;51.660;-0.100;2023-07-02T03:41:39;100370.51;;;14.71;48.07
61761;BME280;47664;51.660;-0.100;2023-07-02T03:44:05;100369.37;;;14.96;47.96
61761;BME280;47664;51.660;-0.100;2023-07-02T03:46:33;100370.80;;;14.92;48.44
61761;BME280;47664;51.660;-0.100;2023-07-02T03:49:00;100365.03;;;15.15;48.16
61761;BME280;47664;51.660;-0.100;2023-07-02T03:51:27;100366.94;;;14.84;48.27
61761;BME280;47664;51.660;-0.100;2023-07-02T03:53:55;100370.97;;;14.75;48.66
61761;BME280;47664;51.660;-0.100;2023-07-02T03:56:23;100376.85;;;14.80;48.76
61761;BME280;47664;51.660;-0.100;2023-07-02T03:58:50;100378.84;;;15.10;48.68
61761;BME280;47664;51.660;-0.100;2023-07-02T04:01:17;100381.73;;;14.70;49.51
61761;BME280;47664;51.660;-0.100;2023-07-02T04:03:48;100378.18;;;14.57;49.06
61761;BME280;47664;51.660;-0.100;2023-07-02T04:06:16;100376.45;;;14.60;49.05
61761;BME280;47664;51.660;-0.100;2023-07-02T04:08:43;100377.84;;;14.76;48.94
61761;BME280;47664;51.660;-0.100;2023-07-02T04:11:12;100382.18;;;15.09;48.83
61761;BME280;47664;51.660;-0.100;2023-07-02T04:13:39;100383.57;;;14.56;49.21
61761;BME280;47664;51.660;-0.100;2023-07-02T04:16:06;100384.76;;;14.94;48.65
61761;BME280;47664;51.660;-0.100;2023-07-02T04:18:33;100386.15;;;14.97;48.43
61761;BME280;47664;51.660;-0.100;2023-07-02T04:21:01;100388.16;;;14.70;48.63
61761;BME280;47664;51.660;-0.100;2023-07-02T04:23:29;100389.32;;;15.12;49.02
61761;BME280;47664;51.660;-0.100;2023-07-02T04:25:56;100392.78;;;14.91;49.13
61761;BME280;47664;51.660;-0.100;2023-07-02T04:28:24;100394.35;;;14.79;49.60
61761;BME280;47664;51.660;-0.100;2023-07-02T04:30:52;100398.64;;;14.71;49.30
61761;BME280;47664;51.660;-0.100;2023-07-02T04:33:19;100400.49;;;14.84;49.56
61761;BME280;47664;51.660;-0.100;2023-07-02T04:35:46;100400.59;;;14.84;49.67
61761;BME280;47664;51.660;-0.100;2023-07-02T04:38:14;100401.63;;;14.54;49.65
61761;BME280;47664;51.660;-0.100;2023-07-02T04:40:41;100400.02;;;14.95;49.35
61761;BME280;47664;51.660;-0.100;2023-07-02T04:43:08;100399.83;;;14.82;49.78
61761;BME280;47664;51.660;-0.100;2023-07-02T04:45:35;100405.27;;;14.71;49.68
61761;BME280;47664;51.660;-0.100;2023-07-02T04:48:02;100406.99;;;14.56;49.22
61761;BME280;47664;51.660;-0.100;2023-07-02T04:50:29;100410.99;;;14.80;49.10
61761;BME280;47664;51.660;-0.100;2023-07-02T04:52:56;100412.67;;;15.22;48.91
61761;BME280;47664;51.660;-0.100;2023-07-02T04:55:23;100413.82;;;15.11;48.78
61761;BME280;47664;51.660;-0.100;2023-07-02T04:57:51;100417.97;;;15.33;48.77
61761;BME280;47664;51.660;-0.100;2023-07-02T05:00:19;100421.74;;;15.59;49.00
61761;BME280;47664;51.660;-0.100;2023-07-02T05:02:45;100424.07;;;15.46;48.55
61761;BME280;47664;51.660;-0.100;2023-07-02T05:05:13;100420.74;;;15.02;49.18
61761;BME280;47664;51.660;-0.100;2023-07-02T05:07:40;100424.42;;;14.62;50.23
61761;BME280;47664;51.660;-0.100;2023-07-02T05:10:08;100421.15;;;14.62;50.38
61761;BME280;47664;51.660;-0.100;2023-07-02T05:12:35;100424.86;;;14.67;50.15
61761;BME280;47664;51.660;-0.100;2023-07-02T05:15:03;100426.34;;;14.35;50.76
61761;BME280;47664;51.660;-0.100;2023-07-02T05:17:30;100426.99;;;14.38;51.20
61761;BME280;47664;51.660;-0.100;2023-07-02T05:19:57;100427.90;;;14.85;50.81
61761;BME280;47664;51.660;-0.100;2023-07-02T05:22:24;100430.53;;;14.40;50.70
61761;BME280;47664;51.660;-0.100;2023-07-02T05:24:51;100434.47;;;15.08;50.74
61761;BME280;47664;51.660;-0.100;2023-07-02T05:27:18;100435.39;;;14.54;51.27
61761;BME280;47664;51.660;-0.100;2023-07-02T05:29:45;100434.56;;;14.40;51.76
61761;BME280;47664;51.660;-0.100;2023-07-02T05:32:12;100441.10;;;14.37;52.20
61761;BME280;47664;51.660;-0.100;2023-07-02T05:34:40;100443.63;;;14.53;51.44
61761;BME280;47664;51.660;-0.100;2023-07-02T05:37:07;100446.44;;;14.90;51.19
61761;BME280;47664;51.660;-0.100;2023-07-02T05:39:34;100443.55;;;14.75;50.98
61761;BME280;47664;51.660;-0.100;2023-07-02T05:42:03;100438.11;;;14.53;51.05
61761;BME280;47664;51.660;-0.100;2023-07-02T05:44:31;100433.93;;;14.71;51.29
61761;BME280;47664;51.660;-0.100;2023-07-02T05:46:57;100436.55;;;14.36;51.93
61761;BME280;47664;51.660;-0.100;2023-07-02T05:49:25;100438.59;;;14.28;52.27
61761;BME280;47664;51.660;-0.100;2023-07-02T05:51:52;100443.51;;;14.56;51.74
61761;BME280;47664;51.660;-0.100;2023-07-02T05:54:20;100444.61;;;14.80;51.26
61761;BME280;47664;51.660;-0.100;2023-07-02T05:56:47;100447.08;;;14.88;51.05
61761;BME280;47664;51.660;-0.100;2023-07-02T05:59:14;100445.70;;;14.87;50.86
61761;BME280;47664;51.660;-0.100;2023-07-02T06:01:41;100446.41;;;14.98;50.74
61761;BME280;47664;51.660;-0.100;2023-07-02T06:04:09;100445.34;;;14.74;51.28
61761;BME280;47664;51.660;-0.100;2023-07-02T06:06:36;100448.40;;;14.99;51.46
61761;BME280;47664;51.660;-0.100;2023-07-02T06:09:03;100452.68;;;14.61;51.67
61761;BME280;47664;51.660;-0.100;2023-07-02T06:11:30;100452.69;;;14.59;51.72
61761;BME280;47664;51.660;-0.100;2023-07-02T06:13:57;100454.64;;;14.72;51.33
61761;BME280;47664;51.660;-0.100;2023-07-02T06:16:25;100456.78;;;15.19;50.93
61761;BME280;47664;51.660;-0.100;2023-07-02T06:18:53;100457.11;;;15.26;50.76
61761;BME280;47664;51.660;-0.100;2023-07-02T06:21:20;100457.25;;;15.00;50.67
61761;BME280;47664;51.660;-0.100;2023-07-02T06:23:47;100460.45;;;15.28;50.55
61761;BME280;47664;51.660;-0.100;2023-07-02T06:26:13;100457.32;;;15.36;49.53
61761;BME280;47664;51.660;-0.100;2023-07-02T06:28:41;100461.86;;;15.19;49.35
61761;BME280;47664;51.660;-0.100;2023-07-02T06:31:08;100459.92;;;15.41;49.51
61761;BME280;47664;51.660;-0.100;2023-07-02T06:33:39;100462.15;;;15.76;49.45
61761;BME280;47664;51.660;-0.100;2023-07-02T06:36:06;100466.29;;;15.75;49.02
61761;BME280;47664;51.660;-0.100;2023-07-02T06:38:33;100459.70;;;16.02;48.01
61761;BME280;47664;51.660;-0.100;2023-07-02T06:41:00;100461.86;;;15.83;48.37
61761;BME280;47664;51.660;-0.100;2023-07-02T06:43:27;100461.17;;;15.94;48.14
61761;BME280;47664;51.660;-0.100;2023-07-02T06:45:55;100459.66;;;16.22;47.70
61761;BME280;47664;51.660;-0.100;2023-07-02T06:48:22;100465.00;;;15.62;48.73
61761;BME280;47664;51.660;-0.100;2023-07-02T06:50:49;100459.13;;;16.23;47.28
61761;BME280;47664;51.660;-0.100;2023-07-02T06:53:17;100460.14;;;16.18;47.26
61761;BME280;47664;51.660;-0.100;2023-07-02T06:55:44;100455.96;;;16.35;47.21
61761;BME280;47664;51.660;-0.100;2023-07-02T06:58:11;100459.62;;;15.95;46.80
61761;BME280;47664;51.660;-0.100;2023-07-02T07:00:38;100461.21;;;16.69;47.10
61761;BME280;47664;51.660;-0.100;2023-07-02T07:03:06;100464.29;;;16.42;47.27
61761;BME280;47664;51.660;-0.100;2023-07-02T07:05:33;100463.16;;;16.62;46.35
61761;BME280;47664;51.660;-0.100;2023-07-02T07:08:01;100467.61;;;16.12;46.60
61761;BME280;47664;51.660;-0.100;2023-07-02T07:10:29;100468.22;;;16.26;46.55
61761;BME280;47664;51.660;-0.100;2023-07-02T07:12:56;100469.19;;;16.26;46.46
61761;BME280;47664;51.660;-0.100;2023-07-02T07:15:24;100468.69;;;16.59;46.98
61761;BME280;47664;51.660;-0.100;2023-07-02T07:17:56;100471.95;;;17.23;45.91
61761;BME280;47664;51.660;-0.100;2023-07-02T07:20:23;100467.84;;;16.81;44.86
61761;BME280;47664;51.660;-0.100;2023-07-02T07:22:50;100470.10;;;16.92;45.49
61761;BME280;47664;51.660;-0.100;2023-07-02T07:25:17;100474.68;;;16.73;46.18
61761;BME280;47664;51.660;-0.100;2023-07-02T07:27:44;100472.11;;;17.02;43.99
61761;BME280;47664;51.660;-0.100;2023-07-02T07:30:12;100474.35;;;16.84;44.37
61761;BME280;47664;51.660;-0.100;2023-07-02T07:32:39;100477.88;;;17.10;45.19
61761;BME280;47664;51.660;-0.100;2023-07-02T07:35:09;100476.53;;;16.63;45.08
61761;BME280;47664;51.660;-0.100;2023-07-02T07:37:36;100474.86;;;16.68;43.38
61761;BME280;47664;51.660;-0.100;2023-07-02T07:40:04;100473.22;;;16.66;43.67
61761;BME280;47664;51.660;-0.100;2023-07-02T07:42:32;100472.79;;;16.96;42.39
61761;BME280;47664;51.660;-0.100;2023-07-02T07:44:59;100477.23;;;16.89;42.33
61761;BME280;47664;51.660;-0.100;2023-07-02T07:47:27;100480.77;;;17.21;41.78
61761;BME280;47664;51.660;-0.100;2023-07-02T07:49:54;100474.77;;;17.23;42.27
61761;BME280;47664;51.660;-0.100;2023-07-02T07:52:21;100474.03;;;17.59;42.29
61761;BME280;47664;51.660;-0.100;2023-07-02T07:54:48;100472.68;;;17.87;40.86
61761;BME280;47664;51.660;-0.100;2023-07-02T07:57:15;100468.41;;;17.33;41.24
61761;BME280;47664;51.660;-0.100;2023-07-02T07:59:42;100466.87;;;17.72;40.32
61761;BME280;47664;51.660;-0.100;2023-07-02T08:02:09;100464.22;;;17.73;39.78
61761;BME280;47664;51.660;-0.100;2023-07-02T08:04:37;100462.23;;;17.48;39.39
61761;BME280;47664;51.660;-0.100;2023-07-02T08:07:04;100460.13;;;17.65;39.74
61761;BME280;47664;51.660;-0.100;2023-07-02T08:09:31;100462.08;;;17.79;38.89
61761;BME280;47664;51.660;-0.100;2023-07-02T08:11:58;100467.00;;;17.85;38.39
61761;BME280;47664;51.660;-0.100;2023-07-02T08:14:26;100463.01;;;17.38;38.47
61761;BME280;47664;51.660;-0.100;2023-07-02T08:16:53;100461.43;;;17.96;38.55
61761;BME280;47664;51.660;-0.100;2023-07-02T08:19:20;100457.31;;;17.70;39.19
61761;BME280;47664;51.660;-0.100;2023-07-02T08:21:47;100458.23;;;18.21;38.94
61761;BME280;47664;51.660;-0.100;2023-07-02T08:24:15;100455.32;;;18.20;39.08
61761;BME280;47664;51.660;-0.100;2023-07-02T08:26:43;100451.90;;;18.07;38.70
61761;BME280;47664;51.660;-0.100;2023-07-02T08:29:10;100457.09;;;17.84;39.09
61761;BME280;47664;51.660;-0.100;2023-07-02T08:31:37;100451.96;;;18.04;38.58
61761;BME280;47664;51.660;-0.100;2023-07-02T08:34:05;100457.68;;;18.31;38.30
61761;BME280;47664;51.660;-0.100;2023-07-02T08:36:38;100449.46;;;18.06;39.09
61761;BME280;47664;51.660;-0.100;2023-07-02T08:39:05;100452.53;;;17.93;39.15
61761;BME280;47664;51.660;-0.100;2023-07-02T08:41:42;100452.13;;;18.02;38.52
61761;BME280;47664;51.660;-0.100;2023-07-02T08:44:11;100449.61;;;18.37;38.38
61761;BME280;47664;51.660;-0.100;2023-07-02T08:46:41;100446.62;;;18.38;37.91
61761;BME280;47664;51.660;-0.100;2023-07-02T08:49:09;100447.52;;;18.11;37.68
61761;BME280;47664;51.660;-0.100;2023-07-02T08:51:37;100446.39;;;18.55;37.44
61761;BME280;47664;51.660;-0.100;2023-07-02T08:54:04;100448.01;;;18.49;36.83
61761;BME280;47664;51.660;-0.100;2023-07-02T08:56:31;100455.38;;;18.42;36.59
61761;BME280;47664;51.660;-0.100;2023-07-02T08:58:58;100452.03;;;18.55;36.41
61761;BME280;47664;51.660;-0.100;2023-07-02T09:01:25;100453.88;;;18.92;36.59
61761;BME280;47664;51.660;-0.100;2023-07-02T09:03:52;100454.71;;;18.93;37.22
61761;BME280;47664;51.660;-0.100;2023-07-02T09:06:25;100452.75;;;18.65;37.83
61761;BME280;47664;51.660;-0.100;2023-07-02T09:08:52;100454.98;;;18.31;37.58
61761;BME280;47664;51.660;-0.100;2023-07-02T09:11:19;100456.18;;;18.58;37.45
61761;BME280;47664;51.660;-0.100;2023-07-02T09:13:47;100449.47;;;18.19;38.03
61761;BME280;47664;51.660;-0.100;2023-07-02T09:16:24;100444.41;;;18.00;37.04
61761;BME280;47664;51.660;-0.100;2023-07-02T09:19:00;100445.38;;;18.38;36.69
61761;BME280;47664;51.660;-0.100;2023-07-02T09:21:37;100447.07;;;18.61;36.14
61761;BME280;47664;51.660;-0.100;2023-07-02T09:24:13;100449.43;;;18.63;36.35
61761;BME280;47664;51.660;-0.100;2023-07-02T09:26:42;100449.34;;;18.35;37.14
61761;BME280;47664;51.660;-0.100;2023-07-02T09:29:09;100452.20;;;18.56;37.32
61761;BME280;47664;51.660;-0.100;2023-07-02T09:31:46;100449.23;;;18.53;37.91
61761;BME280;47664;51.660;-0.100;2023-07-02T09:34:13;100455.08;;;18.62;37.35
61761;BME280;47664;51.660;-0.100;2023-07-02T09:36:41;100449.50;;;19.04;35.41
61761;BME280;47664;51.660;-0.100;2023-07-02T09:39:12;100450.33;;;18.99;36.66
61761;BME280;47664;51.660;-0.100;2023-07-02T09:41:41;100448.27;;;19.12;36.68
61761;BME280;47664;51.660;-0.100;2023-07-02T09:44:09;100446.68;;;18.68;37.98
61761;BME280;47664;51.660;-0.100;2023-07-02T09:46:40;100451.28;;;18.74;37.70
61761;BME280;47664;51.660;-0.100;2023-07-02T09:49:12;100456.56;;;18.97;37.23
61761;BME280;47664;51.660;-0.100;2023-07-02T09:51:42;100452.98;;;19.31;37.12
61761;BME280;47664;51.660;-0.100;2023-07-02T09:54:10;100446.41;;;18.69;36.93
61761;BME280;47664;51.660;-0.100;2023-07-02T09:56:37;100450.22;;;18.36;37.22
61761;BME280;47664;51.660;-0.100;2023-07-02T09:59:05;100443.91;;;18.45;37.22
61761;BME280;47664;51.660;-0.100;2023-07-02T10:01:32;100446.02;;;18.81;36.50
61761;BME280;47664;51.660;-0.100;2023-07-02T10:04:10;100447.76;;;18.92;36.33
61761;BME280;47664;51.660;-0.100;2023-07-02T10:06:45;100440.92;;;18.62;36.73
61761;BME280;47664;51.660;-0.100;2023-07-02T10:09:12;100441.85;;;18.89;36.67
61761;BME280;47664;51.660;-0.100;2023-07-02T10:11:39;100448.87;;;18.83;36.59
61761;BME280;47664;51.660;-0.100;2023-07-02T10:14:06;100449.97;;;18.90;36.86
61761;BME280;47664;51.660;-0.100;2023-07-02T10:16:33;100446.60;;;18.88;36.24
61761;BME280;47664;51.660;-0.100;2023-07-02T10:19:11;100450.53;;;19.68;35.66
61761;BME280;47664;51.660;-0.100;2023-07-02T10:21:39;100449.59;;;19.44;35.76
61761;BME280;47664;51.660;-0.100;2023-07-02T10:24:11;100450.50;;;19.04;35.74
61761;BME280;47664;51.660;-0.100;2023-07-02T10:26:38;100449.30;;;19.99;34.95
61761;BME280;47664;51.660;-0.100;2023-07-02T10:29:06;100448.71;;;19.61;35.70
61761;BME280;47664;51.660;-0.100;2023-07-02T10:31:33;100446.95;;;19.82;35.48
61761;BME280;47664;51.660;-0.100;2023-07-02T10:34:01;100452.07;;;19.49;35.10
61761;BME280;47664;51.660;-0.100;2023-07-02T10:36:29;100453.61;;;19.26;36.18
61761;BME280;47664;51.660;-0.100;2023-07-02T10:39:01;100449.62;;;18.95;36.37
61761;BME280;47664;51.660;-0.100;2023-07-02T10:41:29;100450.61;;;18.78;37.02
61761;BME280;47664;51.660;-0.100;2023-07-02T10:44:06;100445.97;;;18.90;36.48
61761;BME280;47664;51.660;-0.100;2023-07-02T10:46:33;100451.71;;;19.28;36.87
61761;BME280;47664;51.660;-0.100;2023-07-02T10:49:00;100448.08;;;19.91;35.72
61761;BME280;47664;51.660;-0.100;2023-07-02T10:51:27;100452.78;;;19.28;35.49
61761;BME280;47664;51.660;-0.100;2023-07-02T10:53:58;100458.94;;;19.02;36.32
61761;BME280;47664;51.660;-0.100;2023-07-02T10:56:26;100455.91;;;18.70;36.54
61761;BME280;47664;51.660;-0.100;2023-07-02T10:58:53;100458.45;;;19.31;36.77
61761;BME280;47664;51.660;-0.100;2023-07-02T11:01:23;100458.94;;;18.70;37.39
61761;BME280;47664;51.660;-0.100;2023-07-02T11:03:57;100456.05;;;18.90;37.20
61761;BME280;47664;51.660;-0.100;2023-07-02T11:06:24;100458.53;;;18.77;37.59
61761;BME280;47664;51.660;-0.100;2023-07-02T11:08:51;100461.41;;;18.34;38.06
61761;BME280;47664;51.660;-0.100;2023-07-02T11:11:18;100455.91;;;18.25;38.24
61761;BME280;47664;51.660;-0.100;2023-07-02T11:13:46;100464.64;;;18.28;39.23
61761;BME280;47664;51.660;-0.100;2023-07-02T11:16:22;100463.83;;;17.99;38.92
61761;BME280;47664;51.660;-0.100;2023-07-02T11:18:50;100461.52;;;18.01;38.52
61761;BME280;47664;51.660;-0.100;2023-07-02T11:21:17;100455.47;;;18.71;37.80
61761;BME280;47664;51.660;-0.100;2023-07-02T11:23:44;100453.51;;;18.80;37.13
61761;BME280;47664;51.660;-0.100;2023-07-02T11:26:11;100448.72;;;19.07;36.48
61761;BME280;47664;51.660;-0.100;2023-07-02T11:28:48;100449.87;;;19.10;37.07
61761;BME280;47664;51.660;-0.100;2023-07-02T11:31:25;100442.42;;;18.99;37.05
61761;BME280;47664;51.660;-0.100;2023-07-02T11:33:52;100444.93;;;18.73;37.69
61761;BME280;47664;51.660;-0.100;2023-07-02T11:36:21;100443.39;;;18.69;37.72
61761;BME280;47664;51.660;-0.100;2023-07-02T11:38:49;100440.45;;;19.02;37.18
61761;BME280;47664;51.660;-0.100;2023-07-02T11:41:17;100440.35;;;19.13;36.87
61761;BME280;47664;51.660;-0.100;2023-07-02T11:43:45;100430.67;;;19.16;35.82
61761;BME280;47664;51.660;-0.100;2023-07-02T11:46:12;100428.78;;;19.95;33.91
61761;BME280;47664;51.660;-0.100;2023-07-02T11:48:40;100432.91;;;19.63;34.18
61761;BME280;47664;51.660;-0.100;2023-07-02T11:51:07;100437.34;;;19.15;34.64
61761;BME280;47664;51.660;-0.100;2023-07-02T11:53:34;100435.77;;;19.46;34.28
61761;BME280;47664;51.660;-0.100;2023-07-02T11:56:00;100437.69;;;18.78;36.09
61761;BME280;47664;51.660;-0.100;2023-07-02T11:58:27;100449.20;;;19.05;36.02
61761;BME280;47664;51.660;-0.100;2023-07-02T12:00:55;100443.61;;;19.04;36.43
61761;BME280;47664;51.660;-0.100;2023-07-02T12:03:22;100442.77;;;18.92;36.17
61761;BME280;47664;51.660;-0.100;2023-07-02T12:05:49;100436.44;;;19.18;34.64
61761;BME280;47664;51.660;-0.100;2023-07-02T12:08:16;100438.22;;;19.83;33.99
61761;BME280;47664;51.660;-0.100;2023-07-02T12:10:43;100433.52;;;19.99;33.38
61761;BME280;47664;51.660;-0.100;2023-07-02T12:13:10;100429.85;;;20.13;33.18
61761;BME280;47664;51.660;-0.100;2023-07-02T12:15:37;100435.93;;;19.67;33.54
61761;BME280;47664;51.660;-0.100;2023-07-02T12:18:05;100437.75;;;20.07;32.76
61761;BME280;47664;51.660;-0.100;2023-07-02T12:20:32;100436.16;;;19.70;33.13
61761;BME280;47664;51.660;-0.100;2023-07-02T12:22:58;100441.05;;;19.79;33.75
61761;BME280;47664;51.660;-0.100;2023-07-02T12:25:25;100434.65;;;19.72;33.40
61761;BME280;47664;51.660;-0.100;2023-07-02T12:27:52;100428.42;;;20.22;32.90
61761;BME280;47664;51.660;-0.100;2023-07-02T12:30:19;100417.86;;;20.08;32.55
61761;BME280;47664;51.660;-0.100;2023-07-02T12:32:47;100428.80;;;19.93;33.12
61761;BME280;47664;51.660;-0.100;2023-07-02T12:35:14;100426.27;;;19.57;33.64
61761;BME280;47664;51.660;-0.100;2023-07-02T12:37:43;100433.27;;;19.49;33.92
61761;BME280;47664;51.660;-0.100;2023-07-02T12:40:11;100431.21;;;20.42;33.07
61761;BME280;47664;51.660;-0.100;2023-07-02T12:42:40;100428.39;;;20.66;32.68
61761;BME280;47664;51.660;-0.100;2023-07-02T12:45:08;100423.98;;;20.50;32.40